createdAt,value
2023-04-14T00:02:11.093Z,94231.69
2023-04-14T00:04:38.890Z,94237.72
2023-04-14T00:07:06.617Z,94230.69
2023-04-14T00:09:34.233Z,94220.25
2023-04-14T00:12:03.199Z,94223.66
2023-04-14T00:14:31.354Z,94224.66
2023-04-14T00:16:59.004Z,94225.63
2023-04-14T00:19:26.618Z,94229.06
2023-04-14T00:21:54.232Z,94216.84
2023-04-14T00:24:21.881Z,94222.84
2023-04-14T00:26:49.500Z,94223.03
2023-04-14T00:29:18.467Z,94229.88
2023-04-14T00:31:46.054Z,94215.19
2023-04-14T00:34:14.017Z,94217.00
2023-04-14T00:36:41.603Z,94222.22
2023-04-14T00:39:09.216Z,94222.06
2023-04-14T00:41:36.829Z,94213.59
2023-04-14T00:44:04.472Z,94224.81
2023-04-14T00:46:33.518Z,94220.41
2023-04-14T00:49:01.672Z,94228.25
2023-04-14T00:51:29.489Z,94225.63
2023-04-14T00:53:57.807Z,94228.25
2023-04-14T00:56:26.437Z,94221.41
2023-04-14T00:58:54.779Z,94222.22
2023-04-14T01:01:22.634Z,94221.41
2023-04-14T01:03:53.296Z,94229.25
2023-04-14T01:06:21.513Z,94224.03
2023-04-14T01:08:50.506Z,94224.03
2023-04-14T01:11:29.053Z,94218.00
2023-04-14T01:14:04.800Z,94219.78
2023-04-14T01:16:37.738Z,94227.59
2023-04-14T01:19:23.125Z,94221.41
2023-04-14T01:21:55.550Z,94230.03
2023-04-14T01:24:51.883Z,94224.81
2023-04-14T01:27:33.493Z,94229.25
2023-04-14T01:30:44.146Z,94231.84
2023-04-14T01:33:17.685Z,94234.47
2023-04-14T01:35:50.403Z,94240.47
2023-04-14T01:38:25.173Z,94237.09
2023-04-14T01:40:55.350Z,94235.25
2023-04-14T01:43:27.353Z,94237.88
2023-04-14T01:45:58.864Z,94223.22
2023-04-14T01:48:29.376Z,94225.81
2023-04-14T01:50:59.588Z,94224.03
2023-04-14T01:53:29.063Z,94224.81
2023-04-14T01:55:58.426Z,94230.84
2023-04-14T01:58:27.339Z,94229.25
2023-04-14T02:00:55.940Z,94224.03
2023-04-14T02:03:24.987Z,94222.22
2023-04-14T02:05:56.521Z,94231.84
2023-04-14T02:08:27.027Z,94234.47
2023-04-14T02:10:56.166Z,94225.81
2023-04-14T02:13:25.652Z,94221.41
2023-04-14T02:15:54.145Z,94227.59
2023-04-14T02:18:24.050Z,94231.84
2023-04-14T02:20:53.545Z,94218.81
2023-04-14T02:23:22.835Z,94220.75
2023-04-14T02:25:55.372Z,94217.16
2023-04-14T02:28:28.802Z,94217.16
2023-04-14T02:30:59.561Z,94209.34
2023-04-14T02:33:32.384Z,94211.94
2023-04-14T02:36:03.248Z,94215.38
2023-04-14T02:38:37.413Z,94208.38
2023-04-14T02:41:09.490Z,94210.97
2023-04-14T02:43:45.098Z,94188.63
2023-04-14T02:46:17.443Z,94188.47
2023-04-14T02:48:48.471Z,94174.59
2023-04-14T02:51:18.998Z,94171.97
2023-04-14T02:53:49.012Z,94178.00
2023-04-14T02:56:16.886Z,94179.00
2023-04-14T02:58:44.914Z,94177.19
2023-04-14T03:01:13.272Z,94182.41
2023-04-14T03:03:41.433Z,94186.81
2023-04-14T03:06:09.751Z,94186.81
2023-04-14T03:08:38.678Z,94185.03
2023-04-14T03:11:08.114Z,94203.16
2023-04-14T03:13:38.624Z,94202.47
2023-04-14T03:16:08.323Z,94201.69
2023-04-14T03:18:37.232Z,94199.72
2023-04-14T03:21:06.855Z,94196.28
2023-04-14T03:23:37.576Z,94191.06
2023-04-14T03:26:07.674Z,94196.28
2023-04-14T03:28:38.184Z,94191.06
2023-04-14T03:31:09.008Z,94190.09
2023-04-14T03:33:38.050Z,94186.66
2023-04-14T03:36:08.948Z,94186.66
2023-04-14T03:38:37.977Z,94178.19
2023-04-14T03:41:09.581Z,94164.16
2023-04-14T03:43:37.932Z,94170.19
2023-04-14T03:46:06.107Z,94161.53
2023-04-14T03:48:39.414Z,94169.38
2023-04-14T03:51:09.172Z,94164.16
2023-04-14T03:53:40.758Z,94161.53
2023-04-14T03:56:13.321Z,94166.75
2023-04-14T03:58:42.577Z,94168.53
2023-04-14T04:01:10.613Z,94172.78
2023-04-14T04:03:38.892Z,94178.00
2023-04-14T04:06:07.871Z,94183.25
2023-04-14T04:08:37.348Z,94186.66
2023-04-14T04:11:07.632Z,94191.69
2023-04-14T04:13:37.717Z,94190.88
2023-04-14T04:16:08.446Z,94187.31
2023-04-14T04:18:38.786Z,94187.31
2023-04-14T04:21:08.036Z,94177.69
2023-04-14T04:23:36.090Z,94184.50
2023-04-14T04:26:04.008Z,94180.94
2023-04-14T04:28:32.153Z,94177.50
2023-04-14T04:31:01.708Z,94170.50
2023-04-14T04:33:31.434Z,94173.88
2023-04-14T04:35:59.350Z,94173.72
2023-04-14T04:38:26.972Z,94168.34
2023-04-14T04:40:54.833Z,94173.56
2023-04-14T04:43:22.442Z,94183.16
2023-04-14T04:46:03.332Z,94186.41
2023-04-14T04:48:32.361Z,94191.66
2023-04-14T04:50:59.955Z,94193.28
2023-04-14T04:53:27.575Z,94199.47
2023-04-14T04:55:55.224Z,94201.13
2023-04-14T04:58:22.821Z,94202.91
2023-04-14T05:00:50.491Z,94206.34
2023-04-14T05:03:18.123Z,94211.56
2023-04-14T05:05:47.147Z,94209.91
2023-04-14T05:08:15.381Z,94223.78
2023-04-14T05:10:43.093Z,94224.59
2023-04-14T05:13:10.816Z,94222.81
2023-04-14T05:15:38.457Z,94234.06
2023-04-14T05:18:06.416Z,94235.06
2023-04-14T05:20:35.087Z,94229.84
2023-04-14T05:23:04.445Z,94237.66
2023-04-14T05:25:32.170Z,94230.00
2023-04-14T05:27:59.744Z,94233.41
2023-04-14T05:30:27.588Z,94234.41
2023-04-14T05:32:55.245Z,94228.19
2023-04-14T05:35:24.959Z,94235.22
2023-04-14T05:37:52.565Z,94236.22
2023-04-14T05:40:22.590Z,94230.97
2023-04-14T05:42:50.249Z,94228.38
2023-04-14T05:45:17.819Z,94227.41
2023-04-14T05:47:46.906Z,94217.94
2023-04-14T05:50:16.451Z,94221.38
2023-04-14T05:52:44.104Z,94212.72
2023-04-14T05:55:12.285Z,94210.09
2023-04-14T05:57:41.400Z,94204.88
2023-04-14T06:00:10.575Z,94199.66
2023-04-14T06:02:38.448Z,94205.69
2023-04-14T06:05:07.667Z,94203.09
2023-04-14T06:07:35.660Z,94211.75
2023-04-14T06:10:04.113Z,94218.75
2023-04-14T06:12:31.822Z,94221.38
2023-04-14T06:15:00.800Z,94222.97
2023-04-14T06:17:28.778Z,94217.94
2023-04-14T06:19:57.317Z,94224.78
2023-04-14T06:22:29.247Z,94218.75
2023-04-14T06:24:57.436Z,94223.16
2023-04-14T06:27:25.398Z,94221.38
2023-04-14T06:29:53.121Z,94226.41
2023-04-14T06:32:22.236Z,94230.00
2023-04-14T06:34:52.670Z,94230.81
2023-04-14T06:37:21.006Z,94220.34
2023-04-14T06:39:48.602Z,94228.19
2023-04-14T06:42:16.250Z,94219.56
2023-04-14T06:44:43.866Z,94225.59
2023-04-14T06:47:11.641Z,94222.19
2023-04-14T06:49:40.763Z,94220.34
2023-04-14T06:52:08.369Z,94220.53
2023-04-14T06:54:36.347Z,94221.53
2023-04-14T06:57:03.992Z,94222.34
2023-04-14T06:59:31.658Z,94221.53
2023-04-14T07:01:59.646Z,94219.91
2023-04-14T07:04:27.342Z,94219.09
2023-04-14T07:07:00.427Z,94214.69
2023-04-14T07:09:28.408Z,94219.91
2023-04-14T07:11:57.100Z,94220.88
2023-04-14T07:14:24.959Z,94208.81
2023-04-14T07:16:53.443Z,94207.81
2023-04-14T07:19:21.292Z,94214.88
2023-04-14T07:21:49.028Z,94211.44
2023-04-14T07:24:17.972Z,94206.03
2023-04-14T07:26:45.676Z,94207.66
2023-04-14T07:29:13.492Z,94217.94
2023-04-14T07:31:41.204Z,94218.13
2023-04-14T07:34:08.844Z,94223.34
2023-04-14T07:36:38.225Z,94222.50
2023-04-14T07:39:05.867Z,94233.13
2023-04-14T07:41:34.843Z,94226.91
2023-04-14T07:44:03.098Z,94227.09
2023-04-14T07:46:31.499Z,94221.88
2023-04-14T07:48:59.234Z,94234.75
2023-04-14T07:51:27.216Z,94239.97
2023-04-14T07:53:56.054Z,94243.41
2023-04-14T07:56:23.856Z,94238.19
2023-04-14T07:58:53.248Z,94247.78
2023-04-14T08:01:20.861Z,94247.66
2023-04-14T08:03:48.762Z,94239.00
2023-04-14T08:06:16.879Z,94239.00
2023-04-14T08:08:44.497Z,94233.59
2023-04-14T08:11:12.126Z,94242.25
2023-04-14T08:13:39.728Z,94254.47
2023-04-14T08:16:09.362Z,94256.13
2023-04-14T08:18:37.701Z,94260.53
2023-04-14T08:21:05.670Z,94255.31
2023-04-14T08:23:33.297Z,94265.09
2023-04-14T08:26:00.987Z,94268.53
2023-04-14T08:28:29.281Z,94271.16
2023-04-14T08:30:56.938Z,94272.94
2023-04-14T08:33:25.984Z,94277.16
2023-04-14T08:35:56.619Z,94274.53
2023-04-14T08:38:27.956Z,94266.72
2023-04-14T08:40:57.058Z,94269.31
2023-04-14T08:43:24.739Z,94271.16
2023-04-14T08:45:54.053Z,94266.72
2023-04-14T08:48:25.098Z,94261.50
2023-04-14T08:51:04.686Z,94261.66
2023-04-14T08:53:33.611Z,94262.50
2023-04-14T08:56:04.859Z,94267.72
2023-04-14T08:58:32.855Z,94269.50
2023-04-14T09:01:00.677Z,94268.69
2023-04-14T09:03:28.834Z,94271.28
2023-04-14T09:05:58.329Z,94257.41
2023-04-14T09:08:27.012Z,94261.66
2023-04-14T09:10:55.146Z,94253.84
2023-04-14T09:13:23.302Z,94246.81
2023-04-14T09:15:51.194Z,94247.78
2023-04-14T09:18:19.079Z,94245.19
2023-04-14T09:21:29.921Z,94247.78
2023-04-14T09:23:38.122Z,94254.66
2023-04-14T09:26:09.158Z,94253.84
2023-04-14T09:28:36.946Z,94248.81
2023-04-14T09:31:05.478Z,94252.06
2023-04-14T09:33:34.267Z,94248.63
2023-04-14T09:36:01.960Z,94235.56
2023-04-14T09:38:34.512Z,94248.44
2023-04-14T09:41:04.019Z,94244.03
2023-04-14T09:43:31.812Z,94238.00
2023-04-14T09:46:05.839Z,94244.03
2023-04-14T09:48:34.788Z,94243.22
2023-04-14T09:51:06.569Z,94264.09
2023-04-14T09:53:35.836Z,94272.75
2023-04-14T09:56:07.027Z,94283.19
2023-04-14T09:58:36.548Z,94276.00
2023-04-14T10:01:06.314Z,94277.66
2023-04-14T10:03:35.953Z,94276.00
2023-04-14T10:06:05.481Z,94274.41
2023-04-14T10:08:41.939Z,94270.97
2023-04-14T10:11:19.952Z,94278.78
2023-04-14T10:13:49.302Z,94275.81
2023-04-14T10:16:17.686Z,94256.75
2023-04-14T10:18:45.708Z,94269.00
2023-04-14T10:21:14.959Z,94270.78
2023-04-14T10:23:43.813Z,94274.41
2023-04-14T10:26:12.899Z,94270.97
2023-04-14T10:28:44.636Z,94270.13
2023-04-14T10:31:16.148Z,94266.72
2023-04-14T10:33:44.188Z,94261.66
2023-04-14T10:36:12.142Z,94259.06
2023-04-14T10:38:42.347Z,94258.25
2023-04-14T10:41:11.864Z,94256.44
2023-04-14T10:43:40.264Z,94269.50
2023-04-14T10:46:11.033Z,94255.63
2023-04-14T10:48:40.327Z,94255.63
2023-04-14T10:51:10.441Z,94265.09
2023-04-14T10:53:39.848Z,94259.88
2023-04-14T10:56:07.879Z,94255.63
2023-04-14T10:58:37.672Z,94239.97
2023-04-14T11:01:31.125Z,94233.78
2023-04-14T11:04:11.790Z,94229.38
2023-04-14T11:06:54.983Z,94214.50
2023-04-14T11:09:43.588Z,94225.59
2023-04-14T11:12:26.047Z,94209.75
2023-04-14T11:14:56.470Z,94202.91
2023-04-14T11:17:30.304Z,94186.28
2023-04-14T11:19:58.580Z,94185.25
2023-04-14T11:22:39.960Z,94186.09
2023-04-14T11:25:09.009Z,94179.06
2023-04-14T11:27:36.640Z,94186.09
2023-04-14T11:30:07.085Z,94185.13
2023-04-14T11:32:48.282Z,94189.34
2023-04-14T11:35:16.418Z,94187.53
2023-04-14T11:37:44.246Z,94185.75
2023-04-14T11:40:13.009Z,94194.38
2023-04-14T11:42:44.972Z,94190.16
2023-04-14T11:45:15.270Z,94184.13
2023-04-14T11:47:56.927Z,94183.13
2023-04-14T11:50:24.975Z,94173.47
2023-04-14T11:52:54.032Z,94167.47
2023-04-14T11:55:23.306Z,94158.81
2023-04-14T11:57:50.939Z,94152.78
2023-04-14T12:00:19.167Z,94152.78
2023-04-14T12:02:48.775Z,94161.44
2023-04-14T12:05:21.600Z,94170.25
2023-04-14T12:07:50.315Z,94183.13
2023-04-14T12:10:18.421Z,94185.13
2023-04-14T12:12:46.884Z,94180.69
2023-04-14T12:15:14.666Z,94178.88
2023-04-14T12:17:42.757Z,94171.25
2023-04-14T12:20:18.056Z,94172.06
2023-04-14T12:22:45.856Z,94174.66
2023-04-14T12:25:13.768Z,94163.41
2023-04-14T12:27:41.478Z,94160.78
2023-04-14T12:30:10.603Z,94157.38
2023-04-14T12:32:41.941Z,94166.16
2023-04-14T12:35:10.243Z,94153.13
2023-04-14T12:37:41.339Z,94147.09
2023-04-14T12:40:11.362Z,94142.03
2023-04-14T12:42:48.240Z,94146.28
2023-04-14T12:45:17.175Z,94139.44
2023-04-14T12:47:53.918Z,94131.44
2023-04-14T12:50:28.008Z,94131.44
2023-04-14T12:52:59.683Z,94118.53
2023-04-14T12:55:28.592Z,94128.00
2023-04-14T12:57:57.041Z,94124.41
2023-04-14T13:00:27.084Z,94128.84
2023-04-14T13:02:56.092Z,94133.06
2023-04-14T13:05:23.978Z,94133.88
2023-04-14T13:07:51.609Z,94134.84
2023-04-14T13:10:21.118Z,94133.06
2023-04-14T13:12:48.839Z,94140.06
2023-04-14T13:15:32.562Z,94146.94
2023-04-14T13:18:04.334Z,94160.78
2023-04-14T13:20:32.126Z,94165.19
2023-04-14T13:22:59.687Z,94160.94
2023-04-14T13:25:28.666Z,94179.22
2023-04-14T13:27:56.293Z,94175.81
2023-04-14T13:30:23.870Z,94166.34
2023-04-14T13:32:51.474Z,94156.72
2023-04-14T13:35:19.182Z,94149.88
2023-04-14T13:37:46.948Z,94134.22
2023-04-14T13:40:14.652Z,94137.00
2023-04-14T13:42:43.703Z,94135.22
2023-04-14T13:45:11.737Z,94134.41
2023-04-14T13:47:39.356Z,94130.81
2023-04-14T13:50:07.950Z,94123.13
2023-04-14T13:52:36.374Z,94117.91
2023-04-14T13:55:04.049Z,94122.16
2023-04-14T13:57:31.930Z,94114.50
2023-04-14T14:00:01.454Z,94105.88
2023-04-14T14:02:29.234Z,94114.50
2023-04-14T14:04:56.933Z,94114.50
2023-04-14T14:07:24.546Z,94111.91
2023-04-14T14:09:52.150Z,94105.88
2023-04-14T14:12:19.908Z,94112.69
2023-04-14T14:14:47.551Z,94103.06
2023-04-14T14:17:16.893Z,94101.47
2023-04-14T14:19:44.563Z,94101.47
2023-04-14T14:22:12.155Z,94099.63
2023-04-14T14:24:41.342Z,94096.06
2023-04-14T14:27:08.946Z,94095.25
2023-04-14T14:29:36.640Z,94092.63
2023-04-14T14:32:04.296Z,94092.44
2023-04-14T14:34:33.504Z,94094.25
2023-04-14T14:37:01.195Z,94091.66
2023-04-14T14:39:30.504Z,94086.25
2023-04-14T14:41:58.144Z,94087.06
2023-04-14T14:44:25.934Z,94087.06
2023-04-14T14:46:53.998Z,94081.03
2023-04-14T14:49:22.115Z,94084.47
2023-04-14T14:51:51.075Z,94085.25
2023-04-14T14:54:18.639Z,94081.84
2023-04-14T14:56:46.276Z,94082.63
2023-04-14T14:59:13.985Z,94080.03
2023-04-14T15:01:41.693Z,94079.22
2023-04-14T15:04:10.518Z,94081.84
2023-04-14T15:06:38.170Z,94075.81
2023-04-14T15:09:07.469Z,94075.81
2023-04-14T15:11:35.319Z,94074.97
2023-04-14T15:14:03.387Z,94071.56
2023-04-14T15:16:31.357Z,94076.00
2023-04-14T15:18:59.065Z,94079.38
2023-04-14T15:21:26.679Z,94077.78
2023-04-14T15:23:54.315Z,94075.16
2023-04-14T15:26:23.366Z,94072.56
2023-04-14T15:28:51.154Z,94080.38
2023-04-14T15:31:18.744Z,94080.38
2023-04-14T15:33:46.395Z,94072.75
2023-04-14T15:36:14.031Z,94070.13
2023-04-14T15:38:42.384Z,94073.53
2023-04-14T15:41:09.991Z,94071.75
2023-04-14T15:43:38.964Z,94078.94
2023-04-14T15:46:06.916Z,94068.50
2023-04-14T15:48:34.648Z,94072.75
2023-04-14T15:51:02.436Z,94067.69
2023-04-14T15:53:30.277Z,94078.75
2023-04-14T15:55:58.128Z,94083.19
2023-04-14T15:58:25.722Z,94081.38
2023-04-14T16:00:54.720Z,94077.97
2023-04-14T16:03:22.517Z,94080.56
2023-04-14T16:05:50.487Z,94083.97
2023-04-14T16:08:19.103Z,94090.84
2023-04-14T16:10:46.728Z,94089.84
2023-04-14T16:13:14.892Z,94092.44
2023-04-14T16:15:42.804Z,94105.34
2023-04-14T16:18:11.762Z,94094.06
2023-04-14T16:20:39.384Z,94097.50
2023-04-14T16:23:06.971Z,94097.50
2023-04-14T16:25:35.706Z,94093.25
2023-04-14T16:28:03.368Z,94097.50
2023-04-14T16:30:32.212Z,94087.84
2023-04-14T16:32:59.890Z,94096.50
2023-04-14T16:35:29.462Z,94100.13
2023-04-14T16:37:57.066Z,94100.91
2023-04-14T16:40:25.047Z,94103.53
2023-04-14T16:42:52.683Z,94099.13
2023-04-14T16:45:20.775Z,94099.31
2023-04-14T16:47:48.468Z,94103.69
2023-04-14T16:50:16.332Z,94103.69
2023-04-14T16:52:45.292Z,94100.28
2023-04-14T16:55:15.640Z,94102.88
2023-04-14T16:57:43.386Z,94095.25
2023-04-14T17:00:13.745Z,94103.06
2023-04-14T17:02:42.044Z,94101.28
2023-04-14T17:05:11.268Z,94109.09
2023-04-14T17:07:38.937Z,94104.84
2023-04-14T17:10:08.697Z,94115.31
2023-04-14T17:12:36.351Z,94112.69
2023-04-14T17:15:04.507Z,94117.13
2023-04-14T17:17:33.772Z,94117.91
2023-04-14T17:20:01.805Z,94115.31
2023-04-14T17:22:29.427Z,94119.72
2023-04-14T17:24:57.064Z,94120.53
2023-04-14T17:27:26.379Z,94112.69
2023-04-14T17:29:54.650Z,94120.53
2023-04-14T17:32:22.350Z,94111.09
2023-04-14T17:34:50.402Z,94111.72
2023-04-14T17:37:18.586Z,94104.84
2023-04-14T17:39:49.086Z,94121.34
2023-04-14T17:42:17.038Z,94120.38
2023-04-14T17:44:46.045Z,94115.16
2023-04-14T17:47:15.410Z,94125.41
2023-04-14T17:49:43.813Z,94115.78
2023-04-14T17:52:12.581Z,94105.34
2023-04-14T17:54:40.461Z,94113.00
2023-04-14T17:57:10.804Z,94109.41
2023-04-14T17:59:38.724Z,94108.59
2023-04-14T18:02:08.502Z,94098.97
2023-04-14T18:04:37.408Z,94106.59
2023-04-14T18:07:05.202Z,94111.00
2023-04-14T18:09:33.044Z,94111.00
2023-04-14T18:12:00.656Z,94114.44
2023-04-14T18:14:28.245Z,94113.44
2023-04-14T18:16:56.068Z,94107.44
2023-04-14T18:19:25.124Z,94111.81
2023-04-14T18:21:52.750Z,94119.66
2023-04-14T18:26:51.711Z,94117.88
2023-04-14T18:29:19.722Z,94119.03
2023-04-14T18:31:47.421Z,94119.84
2023-04-14T18:34:16.732Z,94121.44
2023-04-14T18:36:45.772Z,94119.03
2023-04-14T18:39:14.607Z,94119.84
2023-04-14T18:41:42.827Z,94117.38
2023-04-14T18:44:10.603Z,94122.59
2023-04-14T18:46:38.906Z,94113.16
2023-04-14T18:49:06.730Z,94116.56
2023-04-14T18:51:34.348Z,94111.34
2023-04-14T18:54:03.437Z,94120.19
2023-04-14T18:56:31.830Z,94119.19
2023-04-14T18:58:59.914Z,94121.00
2023-04-14T19:01:28.619Z,94116.75
2023-04-14T19:03:57.592Z,94118.53
2023-04-14T19:06:26.178Z,94111.53
2023-04-14T19:08:53.863Z,94116.56
2023-04-14T19:11:23.538Z,94115.78
2023-04-14T19:13:53.674Z,94115.78
2023-04-14T19:16:22.614Z,94117.56
2023-04-14T19:18:50.322Z,94124.41
2023-04-14T19:21:18.513Z,94112.34
2023-04-14T19:23:46.525Z,94137.44
2023-04-14T19:26:14.264Z,94155.56
2023-04-14T19:28:43.232Z,94156.53
2023-04-14T19:31:10.971Z,94153.13
2023-04-14T19:33:39.061Z,94163.41
2023-04-14T19:36:12.689Z,94153.78
2023-04-14T19:38:40.550Z,94165.03
2023-04-14T19:41:08.615Z,94156.41
2023-04-14T19:43:36.514Z,94156.22
2023-04-14T19:46:05.633Z,94165.66
2023-04-14T19:48:33.939Z,94172.69
2023-04-14T19:51:03.908Z,94172.69
2023-04-14T19:53:31.796Z,94168.09
2023-04-14T19:55:59.728Z,94165.66
2023-04-14T19:58:30.438Z,94173.47
2023-04-14T20:00:58.713Z,94171.69
2023-04-14T20:03:28.187Z,94165.66
2023-04-14T20:05:57.480Z,94164.88
2023-04-14T20:08:26.412Z,94156.22
2023-04-14T20:10:54.993Z,94158.00
2023-04-14T20:13:26.733Z,94158.00
2023-04-14T20:15:54.921Z,94164.03
2023-04-14T20:18:23.316Z,94154.56
2023-04-14T20:20:52.757Z,94148.38
2023-04-14T20:23:20.646Z,94147.56
2023-04-14T20:25:48.984Z,94142.34
2023-04-14T20:28:19.234Z,94144.94
2023-04-14T20:30:48.306Z,94138.91
2023-04-14T20:33:18.353Z,94136.31
2023-04-14T20:35:46.155Z,94138.13
2023-04-14T20:38:15.822Z,94140.72
2023-04-14T20:40:43.485Z,94141.69
2023-04-14T20:43:11.167Z,94134.69
2023-04-14T20:45:39.268Z,94141.53
2023-04-14T20:48:08.301Z,94139.09
2023-04-14T20:50:35.953Z,94138.13
2023-04-14T20:53:03.548Z,94133.06
2023-04-14T20:55:32.558Z,94133.88
2023-04-14T20:58:00.287Z,94127.00
2023-04-14T21:00:27.953Z,94131.25
2023-04-14T21:02:55.897Z,94120.81
2023-04-14T21:05:23.674Z,94123.63
2023-04-14T21:07:51.309Z,94123.44
2023-04-14T21:10:18.970Z,94120.81
2023-04-14T21:15:15.903Z,94126.84
2023-04-14T21:15:53.259Z,94117.06
2023-04-14T21:18:23.247Z,94116.22
2023-04-14T21:20:50.846Z,94112.66
2023-04-14T21:23:18.854Z,94114.25
2023-04-14T21:25:46.878Z,94112.47
2023-04-14T21:28:16.339Z,94111.63
2023-04-14T21:30:44.339Z,94114.09
2023-04-14T21:33:12.114Z,94113.28
2023-04-14T21:35:39.808Z,94118.66
2023-04-14T21:38:07.472Z,94116.03
2023-04-14T21:40:35.537Z,94129.09
2023-04-14T21:43:03.144Z,94124.69
2023-04-14T21:45:32.807Z,94119.66
2023-04-14T21:48:00.545Z,94120.47
2023-04-14T21:50:28.189Z,94115.25
2023-04-14T21:52:56.585Z,94118.84
2023-04-14T21:55:24.196Z,94115.41
2023-04-14T21:57:52.425Z,94118.03
2023-04-14T22:00:20.477Z,94106.94
2023-04-14T22:02:50.036Z,94111.19
2023-04-14T22:05:18.287Z,94107.75
2023-04-14T22:07:46.418Z,94104.34
2023-04-14T22:10:14.575Z,94108.75
2023-04-14T22:12:42.445Z,94112.34
2023-04-14T22:15:10.825Z,94101.91
2023-04-14T22:17:39.486Z,94101.09
2023-04-14T22:20:10.285Z,94100.28
2023-04-14T22:22:37.925Z,94101.09
2023-04-14T22:25:06.607Z,94096.88
2023-04-14T22:27:34.446Z,94096.88
2023-04-14T22:30:02.575Z,94101.28
2023-04-14T22:32:30.229Z,94103.88
2023-04-14T22:34:57.876Z,94096.06
2023-04-14T22:37:26.918Z,94097.84
2023-04-14T22:39:54.511Z,94097.84
2023-04-14T22:42:22.481Z,94091.81
2023-04-14T22:44:51.262Z,94092.63
2023-04-14T22:47:18.956Z,94088.41
2023-04-14T22:49:46.559Z,94089.19
2023-04-14T22:52:14.152Z,94089.19
2023-04-14T22:54:43.109Z,94079.56
2023-04-14T22:57:11.335Z,94084.78
2023-04-14T22:59:38.964Z,94088.22
2023-04-14T23:02:07.251Z,94090.00
2023-04-14T23:04:34.994Z,94077.78
2023-04-14T23:07:02.664Z,94082.00
2023-04-14T23:09:30.425Z,94083.81
2023-04-14T23:12:01.133Z,94082.19
2023-04-14T23:14:29.183Z,94083.63
2023-04-14T23:16:56.792Z,94079.56
2023-04-14T23:19:24.384Z,94091.66
2023-04-14T23:21:52.500Z,94089.19
2023-04-14T23:24:20.707Z,94090.00
2023-04-14T23:26:48.320Z,94085.63
2023-04-14T23:29:17.304Z,94079.56
2023-04-14T23:31:44.967Z,94083.81
2023-04-14T23:34:12.592Z,94079.75
2023-04-14T23:36:40.273Z,94083.00
2023-04-14T23:39:07.943Z,94078.75
2023-04-14T23:41:35.544Z,94070.13
2023-04-14T23:44:03.163Z,94068.31
2023-04-14T23:46:32.562Z,94071.56
2023-04-14T23:49:23.073Z,94068.94
2023-04-14T23:51:47.851Z,94069.75
2023-04-14T23:54:15.470Z,94067.97
2023-04-14T23:56:43.083Z,94065.38
2023-04-14T23:59:10.738Z,94066.34
